createdAt,value
2023-04-11T00:00:33.460Z,15.85
2023-04-11T00:03:13.997Z,16.02
2023-04-11T00:05:42.822Z,16.17
2023-04-11T00:08:10.882Z,16.31
2023-04-11T00:10:39.058Z,16.45
2023-04-11T00:13:07.641Z,16.58
2023-04-11T00:15:35.713Z,16.70
2023-04-11T00:18:04.305Z,16.81
2023-04-11T00:20:32.682Z,16.93
2023-04-11T00:23:00.869Z,17.03
2023-04-11T00:25:30.338Z,17.10
2023-04-11T00:27:58.629Z,17.22
2023-04-11T00:30:26.591Z,17.31
2023-04-11T00:32:54.790Z,17.39
2023-04-11T00:35:23.378Z,17.48
2023-04-11T00:37:56.373Z,17.56
2023-04-11T00:40:24.622Z,17.63
2023-04-11T00:42:52.707Z,17.71
2023-04-11T00:45:20.748Z,17.77
2023-04-11T00:47:49.494Z,17.84
2023-04-11T00:50:18.237Z,17.90
2023-04-11T00:52:46.933Z,17.96
2023-04-11T00:55:15.196Z,18.00
2023-04-11T00:57:43.986Z,18.07
2023-04-11T01:00:13.178Z,18.12
2023-04-11T01:02:43.648Z,18.16
2023-04-11T01:05:13.068Z,18.19
2023-04-11T01:07:42.831Z,18.23
2023-04-11T01:10:10.868Z,18.26
2023-04-11T01:12:38.881Z,18.28
2023-04-11T01:15:07.383Z,18.31
2023-04-11T01:17:35.662Z,18.32
2023-04-11T01:20:07.877Z,18.34
2023-04-11T01:22:37.394Z,18.35
2023-04-11T01:25:06.409Z,18.38
2023-04-11T01:27:34.592Z,18.40
2023-04-11T01:30:02.850Z,18.41
2023-04-11T01:32:31.041Z,18.42
2023-04-11T01:34:59.208Z,18.46
2023-04-11T01:37:27.379Z,18.50
2023-04-11T01:39:55.549Z,18.54
2023-04-11T01:42:23.727Z,18.57
2023-04-11T01:44:53.731Z,18.65
2023-04-11T01:47:21.832Z,18.70
2023-04-11T01:49:53.747Z,18.76
2023-04-11T01:52:21.839Z,18.80
2023-04-11T01:54:49.809Z,18.88
2023-04-11T01:57:17.651Z,18.95
2023-04-11T01:59:45.951Z,19.01
2023-04-11T02:02:14.144Z,19.07
2023-04-11T02:04:42.244Z,19.14
2023-04-11T02:07:10.308Z,19.20
2023-04-11T02:09:38.337Z,19.27
2023-04-11T02:12:06.337Z,19.30
2023-04-11T02:14:44.438Z,19.37
2023-04-11T02:17:14.290Z,19.44
2023-04-11T02:19:45.526Z,19.49
2023-04-11T02:22:15.598Z,19.56
2023-04-11T02:24:43.780Z,19.62
2023-04-11T02:27:11.706Z,19.66
2023-04-11T02:29:40.170Z,19.70
2023-04-11T02:32:08.338Z,19.75
2023-04-11T02:34:36.881Z,19.79
2023-04-11T02:37:05.253Z,19.81
2023-04-11T02:39:34.355Z,19.85
2023-04-11T02:42:02.522Z,19.88
2023-04-11T02:44:31.126Z,19.90
2023-04-11T02:46:59.805Z,19.93
2023-04-11T02:49:28.271Z,19.95
2023-04-11T02:51:57.179Z,19.96
2023-04-11T02:54:25.656Z,19.97
2023-04-11T02:56:56.087Z,19.97
2023-04-11T02:59:24.451Z,19.98
2023-04-11T03:02:00.297Z,19.98
2023-04-11T03:04:28.682Z,19.97
2023-04-11T03:07:03.834Z,19.98
2023-04-11T03:09:32.507Z,19.97
2023-04-11T03:12:01.513Z,19.97
2023-04-11T03:14:29.902Z,19.97
2023-04-11T03:16:57.891Z,19.97
2023-04-11T03:19:26.339Z,19.96
2023-04-11T03:21:54.979Z,19.96
2023-04-11T03:24:22.814Z,19.94
2023-04-11T03:26:51.986Z,19.92
2023-04-11T03:29:20.478Z,19.91
2023-04-11T03:32:11.272Z,19.88
2023-04-11T03:34:39.552Z,19.86
2023-04-11T03:37:08.868Z,19.85
2023-04-11T03:39:38.364Z,19.84
2023-04-11T03:42:06.683Z,19.83
2023-04-11T03:44:35.132Z,19.80
2023-04-11T03:47:03.693Z,19.81
2023-04-11T03:49:37.733Z,19.79
2023-04-11T03:52:07.444Z,19.79
2023-04-11T03:54:35.717Z,19.78
2023-04-11T03:57:03.939Z,19.83
2023-04-11T03:59:34.434Z,19.85
2023-04-11T04:02:09.793Z,19.89
2023-04-11T04:04:43.795Z,19.94
2023-04-11T04:07:27.915Z,19.98
2023-04-11T04:10:03.040Z,20.01
2023-04-11T04:12:31.533Z,20.06
2023-04-11T04:15:11.562Z,20.10
2023-04-11T04:17:39.796Z,20.16
2023-04-11T04:20:12.544Z,20.21
2023-04-11T04:22:41.632Z,20.23
2023-04-11T04:25:12.941Z,20.31
2023-04-11T04:27:44.565Z,20.35
2023-04-11T04:30:15.449Z,20.39
2023-04-11T04:33:00.454Z,20.42
2023-04-11T04:35:28.957Z,20.45
2023-04-11T04:37:58.070Z,20.53
2023-04-11T04:40:39.982Z,20.53
2023-04-11T04:43:11.726Z,20.51
2023-04-11T04:45:52.661Z,20.47
2023-04-11T04:48:25.843Z,20.43
2023-04-11T04:50:53.899Z,20.42
2023-04-11T04:53:21.965Z,20.44
2023-04-11T04:55:54.146Z,20.49
2023-04-11T04:58:22.211Z,20.51
2023-04-11T05:00:56.079Z,20.54
2023-04-11T05:03:27.327Z,20.57
2023-04-11T05:05:56.977Z,20.59
2023-04-11T05:08:26.273Z,20.63
2023-04-11T05:10:56.298Z,20.65
2023-04-11T05:13:24.679Z,20.69
2023-04-11T05:15:54.253Z,20.71
2023-04-11T05:18:23.379Z,20.72
2023-04-11T05:20:52.069Z,20.72
2023-04-11T05:23:22.800Z,20.74
2023-04-11T05:25:51.067Z,20.73
2023-04-11T05:28:19.965Z,20.75
2023-04-11T05:31:11.837Z,21.18
2023-04-11T05:33:40.577Z,21.66
2023-04-11T05:36:13.944Z,21.75
2023-04-11T05:38:43.082Z,21.78
2023-04-11T05:41:11.530Z,21.82
2023-04-11T05:43:39.568Z,21.86
2023-04-11T05:46:09.807Z,21.91
2023-04-11T05:48:38.318Z,21.94
2023-04-11T05:51:07.719Z,21.96
2023-04-11T05:53:35.761Z,22.00
2023-04-11T05:56:05.527Z,22.03
2023-04-11T05:58:34.816Z,22.06
2023-04-11T06:01:05.350Z,22.09
2023-04-11T06:03:33.562Z,22.10
2023-04-11T06:06:01.802Z,22.13
2023-04-11T06:08:30.089Z,22.19
2023-04-11T06:10:58.254Z,22.21
2023-04-11T06:13:26.327Z,22.23
2023-04-11T06:15:54.657Z,22.27
2023-04-11T06:18:22.772Z,22.28
2023-04-11T06:21:59.143Z,19.34
2023-04-11T06:24:37.689Z,16.90
2023-04-11T06:27:10.985Z,15.79
2023-04-11T06:29:39.333Z,15.37
2023-04-11T06:32:07.924Z,14.28
2023-04-11T06:34:36.063Z,13.80
2023-04-11T06:37:04.263Z,13.16
2023-04-11T06:39:32.241Z,12.93
2023-04-11T06:42:01.026Z,12.74
2023-04-11T06:44:29.235Z,12.27
2023-04-11T06:46:59.319Z,11.81
2023-04-11T06:49:28.511Z,11.47
2023-04-11T06:51:56.768Z,11.24
2023-04-11T06:54:25.281Z,11.06
2023-04-11T06:56:53.578Z,10.69
2023-04-11T07:07:00.899Z,10.71
2023-04-11T07:09:28.963Z,10.94
2023-04-11T07:11:57.856Z,11.10
2023-04-11T07:14:26.148Z,11.43
2023-04-11T07:16:54.066Z,11.64
2023-04-11T07:29:36.283Z,11.45
2023-04-11T07:32:04.833Z,11.71
2023-04-11T07:34:33.363Z,11.71
2023-04-11T07:37:01.508Z,11.71
2023-04-11T07:39:29.473Z,12.06
2023-04-11T07:41:58.035Z,12.22
2023-04-11T07:49:32.225Z,11.82
2023-04-11T07:52:00.427Z,11.63
2023-04-11T07:54:28.811Z,11.54
2023-04-11T07:56:57.360Z,11.73
2023-04-11T07:59:25.420Z,11.94
2023-04-11T08:02:01.164Z,11.94
2023-04-11T08:04:33.748Z,12.00
2023-04-11T08:07:02.160Z,12.07
2023-04-11T08:09:30.311Z,12.04
2023-04-11T08:11:58.601Z,11.80
2023-04-11T08:14:26.646Z,11.53
2023-04-11T08:16:54.647Z,11.55
2023-04-11T08:19:22.808Z,11.66
2023-04-11T08:21:52.747Z,12.00
2023-04-11T08:24:20.885Z,12.04
2023-04-11T08:26:48.844Z,12.17
2023-04-11T08:29:16.829Z,12.36
2023-04-11T08:31:45.448Z,12.17
2023-04-11T08:34:13.695Z,12.20
2023-04-11T08:36:41.954Z,12.13
2023-04-11T08:39:09.850Z,12.33
2023-04-11T08:41:38.629Z,12.59
2023-04-11T08:44:10.921Z,12.78
2023-04-11T08:46:42.233Z,12.98
2023-04-11T08:49:10.814Z,12.66
2023-04-11T08:51:38.884Z,12.75
2023-04-11T08:54:07.260Z,13.02
2023-04-11T08:56:36.160Z,12.91
2023-04-11T08:59:04.224Z,12.76
2023-04-11T09:01:34.152Z,12.40
2023-04-11T09:04:05.617Z,12.42
2023-04-11T09:06:34.287Z,12.28
2023-04-11T09:09:06.749Z,12.37
2023-04-11T09:12:01.554Z,12.20
2023-04-11T09:14:29.641Z,12.20
2023-04-11T09:17:01.835Z,12.43
2023-04-11T09:19:33.876Z,12.51
2023-04-11T09:22:06.254Z,12.71
2023-04-11T09:24:35.748Z,12.73
2023-04-11T09:27:14.440Z,12.84
2023-04-11T09:29:45.340Z,12.86
2023-04-11T09:32:36.332Z,12.64
2023-04-11T09:35:08.778Z,12.80
2023-04-11T09:37:45.373Z,13.12
2023-04-11T09:40:14.968Z,13.00
2023-04-11T09:42:43.850Z,13.28
2023-04-11T09:45:21.763Z,12.81
2023-04-11T09:47:51.382Z,12.69
2023-04-11T09:50:19.566Z,12.76
2023-04-11T09:52:47.720Z,12.78
2023-04-11T09:55:19.409Z,12.93
2023-04-11T09:57:56.332Z,12.93
2023-04-11T10:00:29.340Z,12.95
2023-04-11T10:02:57.773Z,13.00
2023-04-11T10:05:27.766Z,13.33
2023-04-11T10:08:03.776Z,13.32
2023-04-11T10:10:31.956Z,13.64
2023-04-11T10:13:00.139Z,13.75
2023-04-11T10:15:29.112Z,13.95
2023-04-11T10:18:10.523Z,14.00
2023-04-11T10:20:43.771Z,14.07
2023-04-11T10:23:12.920Z,14.21
2023-04-11T10:25:55.729Z,14.00
2023-04-11T10:28:38.478Z,13.73
2023-04-11T10:31:17.374Z,13.96
2023-04-11T10:34:13.905Z,14.23
2023-04-11T10:37:10.140Z,14.60
2023-04-11T10:39:53.611Z,14.67
2023-04-11T10:42:38.202Z,14.58
2023-04-11T10:45:22.228Z,14.72
2023-04-11T10:48:07.813Z,14.67
2023-04-11T10:50:40.961Z,14.30
2023-04-11T10:53:34.191Z,14.40
2023-04-11T10:56:05.482Z,14.56
2023-04-11T10:58:42.949Z,14.84
2023-04-11T11:01:25.787Z,14.38
2023-04-11T11:04:01.591Z,14.41
2023-04-11T11:06:31.230Z,14.76
2023-04-11T11:09:00.324Z,14.78
2023-04-11T11:11:28.394Z,14.58
2023-04-11T11:13:57.050Z,14.47
2023-04-11T11:16:26.077Z,14.57
2023-04-11T11:18:55.377Z,14.99
2023-04-11T11:21:29.002Z,14.85
2023-04-11T11:24:00.989Z,15.02
2023-04-11T11:26:43.360Z,15.08
2023-04-11T11:29:11.522Z,14.76
2023-04-11T11:31:46.439Z,14.54
2023-04-11T11:34:23.454Z,14.74
2023-04-11T11:36:53.299Z,14.72
2023-04-11T11:39:22.833Z,14.87
2023-04-11T11:41:52.381Z,14.98
2023-04-11T11:44:30.993Z,14.63
2023-04-11T11:47:06.579Z,14.72
2023-04-11T11:49:47.455Z,14.96
2023-04-11T11:52:34.522Z,15.14
2023-04-11T11:55:03.849Z,15.07
2023-04-11T11:57:32.988Z,15.12
2023-04-11T12:00:02.102Z,15.21
2023-04-11T12:02:34.607Z,14.66
2023-04-11T12:05:05.151Z,14.61
2023-04-11T12:07:39.638Z,14.97
2023-04-11T12:10:09.498Z,15.17
2023-04-11T12:12:53.729Z,15.16
2023-04-11T12:15:23.715Z,15.20
2023-04-11T12:17:52.729Z,15.27
2023-04-11T12:20:24.672Z,15.06
2023-04-11T12:22:54.638Z,15.26
2023-04-11T12:25:23.460Z,15.54
2023-04-11T12:27:51.663Z,15.54
2023-04-11T12:30:19.741Z,15.43
2023-04-11T12:32:47.954Z,15.03
2023-04-11T12:35:16.282Z,15.12
2023-04-11T12:37:44.961Z,15.09
2023-04-11T12:40:13.566Z,14.90
2023-04-11T12:42:53.295Z,14.80
2023-04-11T12:45:24.345Z,14.65
2023-04-11T12:47:52.626Z,14.70
2023-04-11T12:50:23.488Z,14.89
2023-04-11T12:52:53.067Z,14.86
2023-04-11T12:55:21.910Z,15.02
2023-04-11T12:57:50.042Z,15.24
2023-04-11T13:00:18.820Z,15.16
2023-04-11T13:02:47.241Z,15.10
2023-04-11T13:05:16.571Z,15.12
2023-04-11T13:07:45.659Z,15.05
2023-04-11T13:10:15.866Z,14.89
2023-04-11T13:12:48.586Z,15.21
2023-04-11T13:15:17.136Z,14.99
2023-04-11T13:17:45.899Z,15.02
2023-04-11T13:20:14.368Z,15.07
2023-04-11T13:22:42.952Z,15.29
2023-04-11T13:25:11.321Z,15.33
2023-04-11T13:27:39.824Z,15.36
2023-04-11T13:30:10.014Z,15.37
2023-04-11T13:32:38.134Z,15.56
2023-04-11T13:35:07.312Z,15.49
2023-04-11T13:37:35.651Z,15.46
2023-04-11T13:40:06.908Z,15.45
2023-04-11T13:42:35.489Z,15.31
2023-04-11T13:45:04.772Z,15.46
2023-04-11T13:47:34.834Z,15.27
2023-04-11T13:50:05.944Z,15.34
2023-04-11T13:52:33.895Z,15.28
2023-04-11T13:55:01.898Z,15.20
2023-04-11T13:57:30.055Z,15.23
2023-04-11T13:59:58.026Z,15.11
2023-04-11T14:02:26.215Z,14.92
2023-04-11T14:04:54.578Z,14.56
2023-04-11T14:07:22.604Z,14.83
2023-04-11T14:09:50.739Z,14.72
2023-04-11T14:12:18.694Z,14.92
2023-04-11T14:14:46.628Z,14.91
2023-04-11T14:17:14.871Z,14.74
2023-04-11T14:19:43.115Z,14.54
2023-04-11T14:22:11.186Z,14.62
2023-04-11T14:24:39.161Z,14.69
2023-04-11T14:27:07.232Z,14.81
2023-04-11T14:29:37.446Z,15.00
2023-04-11T14:32:07.086Z,14.81
2023-04-11T14:34:35.335Z,14.52
2023-04-11T14:37:03.783Z,14.81
2023-04-11T14:39:35.053Z,15.08
2023-04-11T14:42:03.239Z,15.14
2023-04-11T14:44:31.730Z,15.21
2023-04-11T14:46:59.691Z,15.15
2023-04-11T14:49:27.646Z,15.16
2023-04-11T14:51:56.237Z,14.89
2023-04-11T14:54:24.617Z,14.95
2023-04-11T14:56:52.792Z,14.86
2023-04-11T14:59:21.086Z,14.91
2023-04-11T15:01:49.288Z,14.63
2023-04-11T15:04:18.045Z,14.82
2023-04-11T15:06:46.655Z,15.02
2023-04-11T15:09:20.233Z,15.03
2023-04-11T15:11:49.035Z,15.04
2023-04-11T15:14:17.183Z,15.03
2023-04-11T15:16:45.268Z,15.00
2023-04-11T15:19:13.506Z,14.97
2023-04-11T15:21:41.703Z,14.94
2023-04-11T15:24:09.866Z,14.83
2023-04-11T15:26:38.155Z,14.72
2023-04-11T15:29:06.325Z,14.78
2023-04-11T15:31:36.623Z,14.60
2023-04-11T15:34:05.171Z,14.49
2023-04-11T15:36:34.269Z,14.51
2023-04-11T15:39:02.511Z,14.60
2023-04-11T15:41:32.014Z,14.42
2023-04-11T15:44:00.709Z,14.37
2023-04-11T15:46:30.329Z,14.40
2023-04-11T15:48:58.580Z,14.46
2023-04-11T15:51:27.323Z,14.40
2023-04-11T15:53:55.783Z,14.21
2023-04-11T15:56:24.247Z,14.30
2023-04-11T15:58:52.501Z,14.30
2023-04-11T16:01:23.188Z,14.32
2023-04-11T16:03:52.064Z,14.27
2023-04-11T16:06:20.657Z,14.22
2023-04-11T16:08:48.906Z,14.07
2023-04-11T16:11:16.972Z,14.01
2023-04-11T16:13:45.240Z,14.06
2023-04-11T16:16:13.503Z,13.81
2023-04-11T16:18:41.697Z,13.75
2023-04-11T16:21:16.186Z,13.68
2023-04-11T16:23:44.602Z,13.61
2023-04-11T16:26:13.086Z,13.50
2023-04-11T16:28:41.532Z,13.38
2023-04-11T16:31:09.835Z,13.25
2023-04-11T16:33:37.807Z,13.25
2023-04-11T16:36:06.575Z,13.31
2023-04-11T16:38:34.659Z,12.99
2023-04-11T16:41:03.648Z,12.93
2023-04-11T16:43:31.623Z,12.76
2023-04-11T16:45:59.727Z,12.62
2023-04-11T16:48:28.046Z,12.45
2023-04-11T16:50:56.352Z,12.31
2023-04-11T16:53:24.519Z,12.20
2023-04-11T16:55:53.745Z,12.23
2023-04-11T16:58:21.698Z,12.09
2023-04-11T17:00:51.404Z,12.02
2023-04-11T17:03:20.067Z,12.05
2023-04-11T17:05:48.364Z,11.96
2023-04-11T17:08:17.571Z,11.89
2023-04-11T17:10:45.953Z,11.78
2023-04-11T17:13:14.961Z,11.73
2023-04-11T17:15:43.116Z,11.60
2023-04-11T17:18:14.035Z,11.56
2023-04-11T17:20:43.683Z,11.50
2023-04-11T17:23:12.464Z,11.41
2023-04-11T17:25:40.723Z,11.37
2023-04-11T17:28:08.796Z,11.42
2023-04-11T17:30:36.805Z,11.34
2023-04-11T17:33:05.075Z,11.35
2023-04-11T17:35:33.240Z,11.35
2023-04-11T17:38:02.041Z,11.31
2023-04-11T17:40:30.187Z,11.28
2023-04-11T17:42:58.355Z,11.22
2023-04-11T17:45:26.346Z,11.21
2023-04-11T17:47:54.645Z,11.23
2023-04-11T17:50:22.874Z,11.25
2023-04-11T17:52:51.483Z,11.20
2023-04-11T17:55:19.847Z,11.20
2023-04-11T17:57:49.191Z,11.11
2023-04-11T18:00:20.683Z,11.02
2023-04-11T18:02:50.086Z,10.97
2023-04-11T18:05:23.727Z,10.98
2023-04-11T18:07:54.275Z,10.94
2023-04-11T18:10:23.047Z,10.98
2023-04-11T18:12:51.801Z,11.04
2023-04-11T18:15:21.174Z,11.00
2023-04-11T18:17:49.536Z,10.94
2023-04-11T18:20:17.870Z,10.91
2023-04-11T18:22:51.640Z,10.90
2023-04-11T18:25:19.953Z,10.89
2023-04-11T18:27:48.220Z,10.85
2023-04-11T18:30:16.712Z,10.89
2023-04-11T18:32:49.773Z,10.80
2023-04-11T18:35:19.233Z,10.81
2023-04-11T18:37:47.825Z,10.85
2023-04-11T18:40:18.193Z,10.81
2023-04-11T18:42:51.378Z,10.84
2023-04-11T18:45:23.052Z,10.82
2023-04-11T18:47:52.079Z,10.77
2023-04-11T18:50:23.083Z,10.70
2023-04-11T18:52:55.613Z,10.63
2023-04-11T18:55:25.372Z,10.62
2023-04-11T18:57:57.357Z,10.64
2023-04-11T19:00:30.294Z,10.70
2023-04-11T19:02:58.841Z,10.72
2023-04-11T19:05:28.196Z,10.73
2023-04-11T19:07:56.618Z,10.67
2023-04-11T19:10:25.179Z,10.60
2023-04-11T19:12:53.753Z,10.45
2023-04-11T19:15:21.679Z,10.36
2023-04-11T19:17:49.890Z,10.36
2023-04-11T19:20:19.346Z,10.34
2023-04-11T19:22:47.472Z,10.33
2023-04-11T19:25:16.153Z,10.43
2023-04-11T19:27:44.947Z,10.31
2023-04-11T19:30:14.094Z,10.23
2023-04-11T19:32:44.044Z,10.30
2023-04-11T19:35:12.842Z,10.35
2023-04-11T19:37:41.424Z,10.22
2023-04-11T19:40:16.889Z,10.22
2023-04-11T19:42:45.272Z,10.12
2023-04-11T19:45:13.505Z,10.11
2023-04-11T19:47:42.101Z,10.12
2023-04-11T19:50:15.970Z,10.05
2023-04-11T19:52:44.201Z,10.03
2023-04-11T19:55:12.812Z,10.09
2023-04-11T19:57:44.084Z,10.16
2023-04-11T20:00:14.356Z,10.04
2023-04-11T20:02:47.393Z,9.89
2023-04-11T20:05:17.163Z,9.98
2023-04-11T20:07:46.041Z,9.90
2023-04-11T20:10:14.630Z,9.83
2023-04-11T20:12:42.814Z,9.80
2023-04-11T20:15:11.504Z,9.81
2023-04-11T20:17:39.828Z,9.68
2023-04-11T20:20:09.047Z,9.78
2023-04-11T20:22:38.464Z,9.75
2023-04-11T20:25:11.902Z,9.83
2023-04-11T20:27:41.504Z,9.80
2023-04-11T20:30:10.936Z,9.68
2023-04-11T20:32:39.933Z,9.71
2023-04-11T20:35:09.978Z,9.76
2023-04-11T20:37:40.200Z,9.68
2023-04-11T20:40:10.669Z,9.72
2023-04-11T20:42:42.973Z,9.73
2023-04-11T20:45:16.264Z,9.71
2023-04-11T20:47:50.429Z,9.64
2023-04-11T20:50:19.537Z,9.58
2023-04-11T20:52:50.629Z,9.57
2023-04-11T20:55:19.060Z,9.43
2023-04-11T20:57:47.099Z,9.45
2023-04-11T21:00:18.608Z,9.49
2023-04-11T21:02:50.257Z,9.40
2023-04-11T21:05:19.578Z,9.42
2023-04-11T21:07:47.848Z,9.47
2023-04-11T21:10:16.515Z,9.38
2023-04-11T21:12:51.274Z,9.42
2023-04-11T21:15:20.329Z,9.36
2023-04-11T21:17:48.426Z,9.30
2023-04-11T21:20:19.817Z,9.31
2023-04-11T21:22:49.234Z,9.20
2023-04-11T21:25:17.333Z,9.18
2023-04-11T21:27:46.292Z,9.22
2023-04-11T21:30:14.809Z,9.16
2023-04-11T21:32:43.044Z,9.21
2023-04-11T21:35:11.961Z,9.24
2023-04-11T21:37:40.255Z,9.22
2023-04-11T21:40:08.911Z,9.03
2023-04-11T21:42:36.845Z,8.92
2023-04-11T21:45:05.466Z,8.97
2023-04-11T21:47:33.533Z,8.91
2023-04-11T21:50:01.590Z,8.88
2023-04-11T21:52:29.669Z,8.82
2023-04-11T21:54:58.110Z,8.85
2023-04-11T21:57:26.203Z,8.85
2023-04-11T21:59:54.291Z,8.85
2023-04-11T22:02:22.356Z,8.86
2023-04-11T22:05:05.608Z,8.87
2023-04-11T22:07:39.178Z,8.90
2023-04-11T22:10:11.981Z,8.84
2023-04-11T22:12:40.772Z,8.81
2023-04-11T22:15:11.217Z,8.82
2023-04-11T22:17:41.928Z,8.81
2023-04-11T22:20:11.330Z,8.70
2023-04-11T22:22:39.413Z,8.61
2023-04-11T22:25:08.592Z,8.54
2023-04-11T22:27:36.687Z,8.50
2023-04-11T22:30:06.399Z,8.44
2023-04-11T22:32:34.656Z,8.51
2023-04-11T22:35:04.369Z,8.44
2023-04-11T22:37:32.449Z,8.48
2023-04-11T22:40:00.621Z,8.48
2023-04-11T22:42:28.703Z,8.46
2023-04-11T22:44:56.816Z,8.44
2023-04-11T22:47:24.798Z,8.44
2023-04-11T22:49:52.832Z,8.41
2023-04-11T22:52:26.305Z,8.27
2023-04-11T22:54:54.893Z,8.32
2023-04-11T22:57:23.063Z,8.24
2023-04-11T22:59:51.219Z,8.19
2023-04-11T23:02:19.250Z,8.24
2023-04-11T23:04:47.522Z,8.18
2023-04-11T23:07:16.990Z,8.17
2023-04-11T23:09:45.069Z,8.09
2023-04-11T23:12:13.231Z,8.01
2023-04-11T23:14:41.318Z,8.03
2023-04-11T23:17:09.344Z,7.96
2023-04-11T23:19:37.444Z,7.96
2023-04-11T23:22:06.527Z,8.20
2023-04-11T23:24:35.645Z,8.04
2023-04-11T23:27:03.605Z,8.16
2023-04-11T23:29:31.958Z,8.21
2023-04-11T23:32:00.063Z,8.19
2023-04-11T23:34:28.132Z,8.13
2023-04-11T23:36:57.730Z,8.01
2023-04-11T23:39:26.514Z,8.06
2023-04-11T23:41:54.517Z,8.07
2023-04-11T23:44:22.883Z,8.09
2023-04-11T23:46:51.146Z,8.01
2023-04-11T23:49:19.211Z,8.12
2023-04-11T23:51:47.507Z,8.19
2023-04-11T23:54:15.568Z,8.12
2023-04-11T23:56:44.189Z,8.12
2023-04-11T23:59:12.229Z,8.09
